createdAt,value
2022-12-24T00:02:05.993Z,96841.30
2022-12-24T00:04:34.201Z,96837.38
2022-12-24T00:07:02.299Z,96832.88
2022-12-24T00:09:30.334Z,96828.89
2022-12-24T00:11:58.680Z,96823.44
2022-12-24T00:14:46.975Z,96823.80
2022-12-24T00:17:15.108Z,96824.34
2022-12-24T00:19:43.370Z,96824.77
2022-12-24T00:22:11.313Z,96822.98
2022-12-24T00:24:46.336Z,96825.88
2022-12-24T00:27:22.308Z,96822.41
2022-12-24T00:29:51.259Z,96815.10
2022-12-24T00:32:19.186Z,96815.39
2022-12-24T00:34:48.711Z,96806.10
2022-12-24T00:37:36.118Z,96798.50
2022-12-24T00:40:11.401Z,96788.01
2022-12-24T00:42:39.431Z,96787.21
2022-12-24T00:45:08.187Z,96786.02
2022-12-24T00:47:36.455Z,96783.81
2022-12-24T00:50:07.267Z,96778.55
2022-12-24T00:52:35.647Z,96774.11
2022-12-24T00:55:04.148Z,96774.09
2022-12-24T00:57:35.475Z,96761.40
2022-12-24T01:00:04.936Z,96754.60
2022-12-24T01:02:33.135Z,96756.87
2022-12-24T01:05:13.281Z,96755.73
2022-12-24T01:07:45.049Z,96748.75
2022-12-24T01:10:16.106Z,96746.80
2022-12-24T01:12:45.128Z,96738.06
2022-12-24T01:15:22.769Z,96736.25
2022-12-24T01:17:50.912Z,96737.59
2022-12-24T01:20:19.114Z,96735.16
2022-12-24T01:22:48.910Z,96740.84
2022-12-24T01:25:16.893Z,96744.04
2022-12-24T01:27:44.898Z,96749.55
2022-12-24T01:30:15.114Z,96749.67
2022-12-24T01:32:46.404Z,96752.88
2022-12-24T01:35:22.387Z,96751.23
2022-12-24T01:37:58.361Z,96749.89
2022-12-24T01:40:45.909Z,96748.66
2022-12-24T01:43:26.525Z,96755.35
2022-12-24T01:46:04.972Z,96756.86
2022-12-24T01:48:44.817Z,96752.45
2022-12-24T01:51:12.841Z,96755.31
2022-12-24T01:53:45.338Z,96758.94
2022-12-24T01:56:14.838Z,96764.50
2022-12-24T01:58:48.447Z,96767.95
2022-12-24T02:01:16.986Z,96763.66
2022-12-24T02:03:45.180Z,96755.24
2022-12-24T02:07:33.059Z,96751.44
2022-12-24T02:10:02.104Z,96742.80
2022-12-24T02:12:48.952Z,96738.73
2022-12-24T02:15:22.857Z,96738.77
2022-12-24T02:18:29.869Z,96737.66
2022-12-24T02:21:23.180Z,96736.16
2022-12-24T02:24:23.802Z,96732.37
2022-12-24T02:27:49.835Z,96737.45
2022-12-24T02:30:42.173Z,96732.98
2022-12-24T02:33:23.096Z,96738.22
2022-12-24T02:36:12.703Z,96740.41
2022-12-24T02:39:01.826Z,96742.14
2022-12-24T02:45:18.111Z,96737.33
2022-12-24T02:48:40.966Z,96746.45
2022-12-24T02:54:41.301Z,96731.19
2022-12-24T02:57:48.757Z,96725.02
2022-12-24T03:00:22.831Z,96734.55
2022-12-24T03:02:56.864Z,96735.23
2022-12-24T03:05:41.389Z,96728.42
2022-12-24T03:08:47.892Z,96733.20
2022-12-24T03:11:16.382Z,96738.56
2022-12-24T03:13:44.907Z,96738.28
2022-12-24T03:16:21.407Z,96743.93
2022-12-24T03:18:51.901Z,96742.66
2022-12-24T03:21:31.510Z,96748.36
2022-12-24T03:23:59.769Z,96752.68
2022-12-24T03:26:30.092Z,96757.75
2022-12-24T03:28:58.007Z,96761.95
2022-12-24T03:31:26.254Z,96777.95
2022-12-24T03:33:54.302Z,96776.48
2022-12-24T03:36:24.164Z,96777.06
2022-12-24T03:42:57.918Z,96784.91
2022-12-24T03:45:26.020Z,96785.48
2022-12-24T03:47:54.080Z,96785.54
2022-12-24T03:50:22.108Z,96786.77
2022-12-24T03:52:50.110Z,96786.26
2022-12-24T03:55:18.162Z,96786.58
2022-12-24T03:57:46.216Z,96788.88
2022-12-24T04:00:14.657Z,96792.86
2022-12-24T04:02:42.728Z,96789.91
2022-12-24T04:05:17.750Z,96788.50
2022-12-24T04:07:46.795Z,96789.90
2022-12-24T04:10:15.830Z,96794.66
2022-12-24T04:12:49.496Z,96791.86
2022-12-24T04:15:17.578Z,96789.80
2022-12-24T04:17:45.537Z,96791.05
2022-12-24T04:20:13.531Z,96792.54
2022-12-24T04:22:42.330Z,96779.98
2022-12-24T04:29:30.999Z,96786.31
2022-12-24T04:31:59.078Z,96781.48
2022-12-24T04:34:27.643Z,96785.33
2022-12-24T04:36:55.581Z,96789.50
2022-12-24T04:39:23.655Z,96792.53
2022-12-24T04:41:51.769Z,96789.58
2022-12-24T04:44:19.730Z,96787.09
2022-12-24T04:46:47.734Z,96785.53
2022-12-24T04:49:15.653Z,96790.64
2022-12-24T04:51:43.608Z,96789.99
2022-12-24T04:54:11.570Z,96794.98
2022-12-24T04:56:47.558Z,96799.01
2022-12-24T04:59:22.633Z,96797.70
2022-12-24T05:01:50.795Z,96792.38
2022-12-24T05:04:18.809Z,96795.55
2022-12-24T05:06:46.755Z,96794.55
2022-12-24T05:09:14.672Z,96796.04
2022-12-24T05:11:42.588Z,96797.96
2022-12-24T05:14:10.679Z,96799.04
2022-12-24T05:16:38.928Z,96800.56
2022-12-24T05:19:07.035Z,96802.98
2022-12-24T05:21:35.231Z,96799.67
2022-12-24T05:24:21.838Z,96801.96
2022-12-24T05:26:53.690Z,96802.40
2022-12-24T05:29:22.451Z,96806.84
2022-12-24T05:31:50.753Z,96806.96
2022-12-24T05:34:18.733Z,96806.11
2022-12-24T05:36:47.099Z,96806.36
2022-12-24T05:39:17.446Z,96809.86
2022-12-24T05:41:48.161Z,96809.46
2022-12-24T05:44:16.949Z,96812.45
2022-12-24T05:46:45.450Z,96819.39
2022-12-24T05:49:15.365Z,96818.98
2022-12-24T05:51:43.388Z,96821.12
2022-12-24T05:54:11.436Z,96823.80
2022-12-24T05:56:39.451Z,96822.84
2022-12-24T05:59:07.467Z,96820.91
2022-12-24T06:01:36.004Z,96826.01
2022-12-24T06:04:04.386Z,96832.91
2022-12-24T06:06:32.797Z,96825.83
2022-12-24T06:09:01.877Z,96825.29
2022-12-24T06:11:30.194Z,96823.84
2022-12-24T06:13:58.419Z,96826.71
2022-12-24T06:16:27.094Z,96826.34
2022-12-24T06:18:55.326Z,96833.22
2022-12-24T06:21:23.287Z,96837.36
2022-12-24T06:23:52.315Z,96837.16
2022-12-24T06:26:22.855Z,96845.25
2022-12-24T06:28:51.934Z,96845.98
2022-12-24T06:31:22.769Z,96857.38
2022-12-24T06:33:51.625Z,96862.34
2022-12-24T06:36:23.111Z,96871.02
2022-12-24T06:38:51.785Z,96871.91
2022-12-24T06:41:20.660Z,96876.33
2022-12-24T06:43:50.885Z,96879.16
2022-12-24T06:46:20.215Z,96879.84
2022-12-24T06:48:48.420Z,96878.91
2022-12-24T06:51:19.977Z,96884.69
2022-12-24T06:53:50.866Z,96883.20
2022-12-24T06:56:20.784Z,96889.67
2022-12-24T06:58:49.253Z,96895.65
2022-12-24T07:01:19.606Z,96899.92
2022-12-24T07:03:48.439Z,96899.25
2022-12-24T07:06:34.546Z,96896.98
2022-12-24T07:09:02.485Z,96901.08
2022-12-24T07:11:30.420Z,96900.60
2022-12-24T07:13:58.332Z,96903.98
2022-12-24T07:16:26.527Z,96904.39
2022-12-24T07:18:54.570Z,96906.58
2022-12-24T07:21:22.589Z,96899.77
2022-12-24T07:23:50.557Z,96909.09
2022-12-24T07:26:18.514Z,96911.20
2022-12-24T07:28:46.461Z,96913.48
2022-12-24T07:31:14.741Z,96912.36
2022-12-24T07:33:43.013Z,96915.73
2022-12-24T07:36:18.270Z,96916.04
2022-12-24T07:38:46.547Z,96914.68
2022-12-24T07:41:44.389Z,96921.54
2022-12-24T07:44:16.110Z,96924.40
2022-12-24T07:46:45.183Z,96926.93
2022-12-24T07:49:13.388Z,96933.21
2022-12-24T07:51:41.403Z,96935.21
2022-12-24T07:54:10.800Z,96935.98
2022-12-24T07:56:38.756Z,96942.05
2022-12-24T07:59:10.575Z,96944.33
2022-12-24T08:01:38.763Z,96952.22
2022-12-24T08:04:07.398Z,96955.54
2022-12-24T08:06:35.458Z,96954.28
2022-12-24T08:09:03.839Z,96956.30
2022-12-24T08:11:31.832Z,96958.95
2022-12-24T08:13:59.832Z,96959.97
2022-12-24T08:16:28.117Z,96962.92
2022-12-24T08:18:56.167Z,96960.45
2022-12-24T08:21:24.090Z,96966.14
2022-12-24T08:23:51.997Z,96971.83
2022-12-24T08:26:19.941Z,96973.87
2022-12-24T08:28:47.927Z,96971.89
2022-12-24T08:31:16.171Z,96977.81
2022-12-24T08:33:44.141Z,96982.35
2022-12-24T08:36:12.069Z,96981.70
2022-12-24T08:38:40.131Z,96983.64
2022-12-24T08:41:08.226Z,96984.05
2022-12-24T08:43:36.307Z,96988.80
2022-12-24T08:46:06.420Z,96994.17
2022-12-24T08:48:35.269Z,97000.52
2022-12-24T08:51:08.777Z,97006.27
2022-12-24T08:53:37.768Z,97007.09
2022-12-24T08:56:08.674Z,97009.04
2022-12-24T08:58:38.993Z,97008.58
2022-12-24T09:01:12.752Z,97005.02
2022-12-24T09:03:42.140Z,97008.95
2022-12-24T09:06:10.951Z,97009.08
2022-12-24T09:08:39.691Z,97011.49
2022-12-24T09:11:11.131Z,97014.22
2022-12-24T09:13:39.468Z,97012.26
2022-12-24T09:16:08.888Z,97016.95
2022-12-24T09:18:37.489Z,97019.05
2022-12-24T09:21:16.585Z,97022.74
2022-12-24T09:23:47.145Z,97024.66
2022-12-24T09:26:21.358Z,97027.95
2022-12-24T09:28:51.122Z,97027.41
2022-12-24T09:31:19.440Z,97024.12
2022-12-24T09:33:49.349Z,97030.54
2022-12-24T09:36:18.145Z,97028.23
2022-12-24T09:38:46.419Z,97032.42
2022-12-24T09:41:24.803Z,97031.56
2022-12-24T09:44:31.057Z,97035.55
2022-12-24T09:47:06.739Z,97036.11
2022-12-24T09:49:43.965Z,97034.61
2022-12-24T09:52:18.572Z,97045.24
2022-12-24T09:54:56.995Z,97042.46
2022-12-24T09:57:40.297Z,97045.66
2022-12-24T10:00:20.996Z,97058.81
2022-12-24T10:02:49.156Z,97060.60
2022-12-24T10:05:21.504Z,97063.40
2022-12-24T10:08:15.088Z,97057.96
2022-12-24T10:10:55.645Z,97066.67
2022-12-24T10:13:23.639Z,97070.10
2022-12-24T10:16:08.580Z,97070.64
2022-12-24T10:18:53.371Z,97072.71
2022-12-24T10:21:41.706Z,97079.83
2022-12-24T10:24:16.805Z,97078.04
2022-12-24T10:26:59.081Z,97083.79
2022-12-24T10:29:34.786Z,97088.36
2022-12-24T10:32:08.854Z,97091.00
2022-12-24T10:34:43.164Z,97097.05
2022-12-24T10:37:17.608Z,97102.33
2022-12-24T10:39:45.604Z,97102.67
2022-12-24T10:42:14.935Z,97100.75
2022-12-24T10:44:48.071Z,97099.51
2022-12-24T10:47:18.093Z,97098.35
2022-12-24T10:49:53.082Z,97104.17
2022-12-24T10:52:28.980Z,97100.02
2022-12-24T10:55:17.283Z,97107.67
2022-12-24T10:57:47.453Z,97114.17
2022-12-24T11:00:21.481Z,97110.09
2022-12-24T11:03:05.274Z,97121.80
2022-12-24T11:09:41.367Z,97122.23
2022-12-24T11:12:35.103Z,97123.75
2022-12-24T11:19:31.511Z,97132.45
2022-12-24T11:22:06.052Z,97138.20
2022-12-24T11:24:37.500Z,97138.65
2022-12-24T11:27:49.669Z,97141.98
2022-12-24T11:30:32.184Z,97141.41
2022-12-24T11:33:03.415Z,97145.02
2022-12-24T11:35:33.955Z,97151.35
2022-12-24T11:38:05.122Z,97155.26
2022-12-24T11:41:02.255Z,97161.11
2022-12-24T11:43:51.229Z,97170.73
2022-12-24T11:46:35.550Z,97166.61
2022-12-24T11:49:21.724Z,97171.42
2022-12-24T11:52:16.724Z,97173.92
2022-12-24T11:55:16.212Z,97184.23
2022-12-24T11:58:03.901Z,97186.04
2022-12-24T12:00:31.821Z,97196.39
2022-12-24T12:03:02.500Z,97194.04
2022-12-24T12:05:33.800Z,97198.48
2022-12-24T12:08:15.986Z,97203.04
2022-12-24T12:10:46.593Z,97212.84
2022-12-24T12:13:19.247Z,97216.04
2022-12-24T12:16:07.797Z,97221.12
2022-12-24T12:18:39.291Z,97222.15
2022-12-24T12:21:14.932Z,97222.13
2022-12-24T12:24:01.918Z,97231.09
2022-12-24T12:26:32.248Z,97232.98
2022-12-24T12:29:32.675Z,97234.11
2022-12-24T12:32:07.412Z,97236.98
2022-12-24T12:34:42.739Z,97245.93
2022-12-24T12:37:37.047Z,97253.05
2022-12-24T12:40:14.857Z,97264.39
2022-12-24T12:43:04.279Z,97264.49
2022-12-24T12:45:37.238Z,97266.77
2022-12-24T12:48:20.498Z,97272.29
2022-12-24T12:51:09.383Z,97278.86
2022-12-24T12:54:02.343Z,97281.80
2022-12-24T12:56:36.495Z,97287.23
2022-12-24T12:59:07.899Z,97295.21
2022-12-24T13:01:59.335Z,97304.45
2022-12-24T13:04:58.019Z,97307.62
2022-12-24T13:07:37.656Z,97305.80
2022-12-24T13:10:28.691Z,97308.34
2022-12-24T13:13:20.705Z,97313.64
2022-12-24T13:15:58.095Z,97314.40
2022-12-24T13:18:44.923Z,97318.46
2022-12-24T13:21:18.892Z,97320.23
2022-12-24T13:23:48.161Z,97322.27
2022-12-24T13:26:24.517Z,97333.17
2022-12-24T13:28:52.595Z,97340.56
2022-12-24T13:31:20.586Z,97342.75
2022-12-24T13:33:56.915Z,97348.75
2022-12-24T13:37:01.914Z,97352.55
2022-12-24T13:40:01.510Z,97354.45
2022-12-24T13:43:07.280Z,97357.98
2022-12-24T13:45:45.384Z,97368.70
2022-12-24T13:48:25.494Z,97374.93
2022-12-24T13:50:55.990Z,97379.53
2022-12-24T13:53:41.262Z,97390.67
2022-12-24T13:56:25.350Z,97402.90
2022-12-24T13:59:11.095Z,97403.95
2022-12-24T14:01:42.449Z,97402.55
2022-12-24T14:04:27.105Z,97411.17
2022-12-24T14:06:59.295Z,97408.55
2022-12-24T14:09:28.977Z,97417.46
2022-12-24T14:11:59.957Z,97418.25
2022-12-24T14:14:36.000Z,97422.89
2022-12-24T14:17:28.098Z,97428.17
2022-12-24T14:20:01.758Z,97430.72
2022-12-24T14:22:43.285Z,97435.35
2022-12-24T14:25:17.035Z,97435.99
2022-12-24T14:27:50.682Z,97438.80
2022-12-24T14:30:24.291Z,97444.07
2022-12-24T14:32:53.257Z,97457.05
2022-12-24T14:35:35.579Z,97452.17
2022-12-24T14:38:06.671Z,97461.71
2022-12-24T14:40:41.947Z,97465.95
2022-12-24T14:43:23.851Z,97467.52
2022-12-24T14:46:14.548Z,97469.05
2022-12-24T14:48:52.272Z,97474.38
2022-12-24T14:51:43.089Z,97479.58
2022-12-24T14:54:14.205Z,97487.55
2022-12-24T14:56:42.223Z,97486.28
2022-12-24T14:59:17.836Z,97492.67
2022-12-24T15:01:46.894Z,97490.43
2022-12-24T15:04:17.204Z,97497.60
2022-12-24T15:06:56.899Z,97499.73
2022-12-24T15:09:29.516Z,97507.39
2022-12-24T15:12:00.953Z,97519.66
2022-12-24T15:14:32.058Z,97524.83
2022-12-24T15:17:04.630Z,97529.17
2022-12-24T15:19:45.048Z,97533.48
2022-12-24T15:22:25.027Z,97532.36
2022-12-24T15:24:53.078Z,97532.02
2022-12-24T15:27:26.743Z,97536.73
2022-12-24T15:29:57.797Z,97539.04
2022-12-24T15:32:25.764Z,97540.71
2022-12-24T15:34:55.456Z,97544.85
2022-12-24T15:37:29.914Z,97549.21
2022-12-24T15:40:18.856Z,97550.13
2022-12-24T15:42:46.903Z,97556.34
2022-12-24T15:45:29.784Z,97555.61
2022-12-24T15:48:01.737Z,97553.83
2022-12-24T15:50:38.207Z,97552.95
2022-12-24T15:53:20.481Z,97550.98
2022-12-24T15:56:09.916Z,97557.16
2022-12-24T15:58:41.386Z,97553.44
2022-12-24T16:01:09.641Z,97558.74
2022-12-24T16:03:41.029Z,97564.96
2022-12-24T16:06:11.967Z,97571.35
2022-12-24T16:08:41.839Z,97570.60
2022-12-24T16:11:20.513Z,97575.58
2022-12-24T16:13:51.713Z,97578.41
2022-12-24T16:16:22.561Z,97581.90
2022-12-24T16:18:57.972Z,97582.55
2022-12-24T16:21:43.110Z,97589.61
2022-12-24T16:24:18.786Z,97591.71
2022-12-24T16:26:48.185Z,97602.29
2022-12-24T16:29:17.215Z,97605.81
2022-12-24T16:31:50.602Z,97604.31
2022-12-24T16:34:28.486Z,97601.95
2022-12-24T16:36:57.677Z,97604.66
2022-12-24T16:39:31.247Z,97611.83
2022-12-24T16:42:20.301Z,97609.17
2022-12-24T16:44:48.603Z,97615.70
2022-12-24T16:47:28.710Z,97616.52
2022-12-24T16:49:57.474Z,97618.90
2022-12-24T16:52:29.060Z,97623.26
2022-12-24T16:54:57.581Z,97628.34
2022-12-24T16:57:26.643Z,97634.29
2022-12-24T16:59:55.606Z,97645.23
2022-12-24T17:02:25.396Z,97641.23
2022-12-24T17:04:55.149Z,97650.13
2022-12-24T17:07:23.531Z,97650.46
2022-12-24T17:09:51.637Z,97651.10
2022-12-24T17:12:21.839Z,97651.45
2022-12-24T17:14:50.035Z,97652.27
2022-12-24T17:17:29.567Z,97655.15
2022-12-24T17:19:58.396Z,97656.61
2022-12-24T17:22:54.708Z,97655.76
2022-12-24T17:25:27.382Z,97659.77
2022-12-24T17:28:00.411Z,97662.61
2022-12-24T17:30:29.650Z,97663.31
2022-12-24T17:33:14.955Z,97666.36
2022-12-24T17:35:44.202Z,97664.84
2022-12-24T17:38:12.184Z,97669.63
2022-12-24T17:40:40.146Z,97668.48
2022-12-24T17:43:09.638Z,97673.05
2022-12-24T17:45:42.540Z,97670.98
2022-12-24T17:48:12.830Z,97673.59
2022-12-24T17:50:44.960Z,97678.79
2022-12-24T17:53:13.713Z,97689.54
2022-12-24T17:55:43.715Z,97694.14
2022-12-24T17:58:12.089Z,97703.15
2022-12-24T18:00:40.054Z,97709.41
2022-12-24T18:03:12.530Z,97712.52
2022-12-24T18:05:40.656Z,97717.16
2022-12-24T18:08:08.625Z,97715.34
2022-12-24T18:10:36.693Z,97714.08
2022-12-24T18:13:05.037Z,97713.17
2022-12-24T18:15:35.328Z,97713.06
2022-12-24T18:18:04.192Z,97717.40
2022-12-24T18:20:36.100Z,97720.45
2022-12-24T18:23:06.531Z,97727.83
2022-12-24T18:25:34.507Z,97728.16
2022-12-24T18:28:02.544Z,97730.08
2022-12-24T18:30:30.556Z,97731.31
2022-12-24T18:33:00.450Z,97731.70
2022-12-24T18:35:28.929Z,97732.77
2022-12-24T18:37:56.884Z,97736.66
2022-12-24T18:40:29.452Z,97740.29
2022-12-24T18:42:57.404Z,97740.19
2022-12-24T18:45:25.327Z,97742.96
2022-12-24T18:52:09.419Z,97750.27
2022-12-24T18:54:38.771Z,97752.35
2022-12-24T18:57:07.524Z,97747.55
2022-12-24T18:59:36.609Z,97752.66
2022-12-24T19:02:05.184Z,97757.36
2022-12-24T19:04:35.307Z,97761.57
2022-12-24T19:07:03.384Z,97767.02
2022-12-24T19:09:31.400Z,97774.22
2022-12-24T19:11:59.409Z,97778.39
2022-12-24T19:14:27.296Z,97785.02
2022-12-24T19:16:55.260Z,97786.19
2022-12-24T19:19:24.585Z,97790.81
2022-12-24T19:21:52.540Z,97794.30
2022-12-24T19:24:20.483Z,97799.64
2022-12-24T19:26:49.032Z,97803.11
2022-12-24T19:29:16.978Z,97808.56
2022-12-24T19:31:47.477Z,97808.08
2022-12-24T19:34:15.869Z,97814.83
2022-12-24T19:36:43.827Z,97816.97
2022-12-24T19:39:11.942Z,97818.52
2022-12-24T19:41:39.909Z,97820.27
2022-12-24T19:44:07.852Z,97821.63
2022-12-24T19:46:36.958Z,97821.73
2022-12-24T19:49:07.603Z,97832.69
2022-12-24T19:51:36.150Z,97833.96
2022-12-24T19:54:06.099Z,97835.35
2022-12-24T19:56:34.741Z,97838.23
2022-12-24T19:59:03.191Z,97836.84
2022-12-24T20:01:33.509Z,97841.08
2022-12-24T20:04:02.439Z,97846.52
2022-12-24T20:06:33.619Z,97851.06
2022-12-24T20:09:07.643Z,97855.02
2022-12-24T20:11:35.988Z,97856.96
2022-12-24T20:14:05.800Z,97855.82
2022-12-24T20:16:34.746Z,97857.59
2022-12-24T20:19:05.397Z,97863.52
2022-12-24T20:21:33.695Z,97868.70
2022-12-24T20:24:01.624Z,97874.89
2022-12-24T20:26:30.021Z,97870.55
2022-12-24T20:28:58.294Z,97864.79
2022-12-24T20:31:29.300Z,97868.15
2022-12-24T20:33:58.621Z,97862.75
2022-12-24T20:36:28.516Z,97856.11
2022-12-24T20:38:57.962Z,97856.61
2022-12-24T20:41:28.106Z,97858.70
2022-12-24T20:43:58.772Z,97857.40
2022-12-24T20:46:28.363Z,97863.08
2022-12-24T20:48:57.790Z,97864.02
2022-12-24T20:51:27.323Z,97862.30
2022-12-24T20:53:58.280Z,97864.10
2022-12-24T20:56:26.708Z,97864.96
2022-12-24T20:58:55.085Z,97866.14
2022-12-24T21:01:25.957Z,97862.80
2022-12-24T21:03:55.927Z,97872.83
2022-12-24T21:06:24.980Z,97877.21
2022-12-24T21:08:53.805Z,97871.66
2022-12-24T21:11:41.349Z,97874.48
2022-12-24T21:14:10.426Z,97875.07
2022-12-24T21:16:39.456Z,97870.27
2022-12-24T21:19:09.608Z,97867.29
2022-12-24T21:21:39.095Z,97868.41
2022-12-24T21:24:18.334Z,97874.23
2022-12-24T21:26:49.152Z,97877.42
2022-12-24T21:29:18.196Z,97883.55
2022-12-24T21:31:52.214Z,97889.48
2022-12-24T21:34:20.127Z,97895.06
2022-12-24T21:36:48.361Z,97899.25
2022-12-24T21:39:16.334Z,97900.41
2022-12-24T21:41:44.335Z,97905.98
2022-12-24T21:44:14.987Z,97903.04
2022-12-24T21:46:43.043Z,97909.65
2022-12-24T21:49:29.615Z,97911.78
2022-12-24T21:53:11.249Z,97914.40
2022-12-24T21:55:39.236Z,97918.40
2022-12-24T21:58:07.295Z,97919.30
2022-12-24T22:00:35.579Z,97922.13
2022-12-24T22:03:03.704Z,97921.48
2022-12-24T22:05:33.558Z,97918.98
2022-12-24T22:08:40.494Z,97921.39
2022-12-24T22:11:31.343Z,97926.41
2022-12-24T22:14:00.139Z,97933.52
2022-12-24T22:16:28.328Z,97937.77
2022-12-24T22:18:56.695Z,97942.84
2022-12-24T22:21:24.617Z,97941.27
2022-12-24T22:23:52.507Z,97943.50
2022-12-24T22:26:20.547Z,97945.43
2022-12-24T22:28:48.498Z,97946.31
2022-12-24T22:31:21.806Z,97943.79
2022-12-24T22:33:50.769Z,97942.02
2022-12-24T22:36:18.706Z,97940.48
2022-12-24T22:38:46.685Z,97935.96
2022-12-24T22:41:14.706Z,97936.40
2022-12-24T22:43:43.119Z,97935.39
2022-12-24T22:46:13.563Z,97932.52
2022-12-24T22:48:42.839Z,97935.99
2022-12-24T22:51:14.571Z,97939.63
2022-12-24T22:53:43.006Z,97941.02
2022-12-24T22:56:21.971Z,97935.19
2022-12-24T22:58:54.436Z,97935.88
2022-12-24T23:01:37.792Z,97931.60
2022-12-24T23:04:06.700Z,97937.86
2022-12-24T23:06:35.348Z,97936.77
2022-12-24T23:09:05.972Z,97938.34
2022-12-24T23:11:34.229Z,97942.83
2022-12-24T23:14:20.703Z,97947.95
2022-12-24T23:16:48.582Z,97949.13
2022-12-24T23:19:16.815Z,97955.59
2022-12-24T23:21:44.730Z,97959.80
2022-12-24T23:24:12.813Z,97960.84
2022-12-24T23:26:40.832Z,97969.77
2022-12-24T23:29:09.782Z,97965.50
2022-12-24T23:31:37.900Z,97965.97
2022-12-24T23:34:06.043Z,97968.00
2022-12-24T23:36:34.050Z,97971.52
2022-12-24T23:39:02.025Z,97975.96
2022-12-24T23:41:30.003Z,97977.13
2022-12-24T23:43:57.933Z,97976.02
2022-12-24T23:46:25.905Z,97978.67
2022-12-24T23:48:55.359Z,97979.10
2022-12-24T23:51:25.978Z,97978.84
2022-12-24T23:53:55.627Z,97978.14
2022-12-24T23:56:25.036Z,97983.63
2022-12-24T23:58:52.999Z,97989.70
